Time;durP1;ratioP1;P1;durP2;ratioP2;P2;SDS_P1;SDS_P2;PMS_P1;PMS_P2;Temp;Humidity;BMP_temperature;BMP_pressure;BME280_temperature;BME280_humidity;BME280_pressure;Samples;Min_cycle;Max_cycle;Signal;HPM_P1;HPM_P2
2021/06/16 00:01:13;;;;;;;0.80;0.70;;;18.80;96.90;;;18.92;100.00;-21194.75;5063789;28;20476;-78
2021/06/16 00:03:41;;;;;;;0.70;0.50;;;18.70;97.50;;;18.86;100.00;-21192.97;5072942;28;20468;-77
2021/06/16 00:06:08;;;;;;;0.80;0.70;;;18.60;97.70;;;18.80;100.00;-21191.63;5061425;28;21009;-78
2021/06/16 00:08:37;;;;;;;0.80;0.70;;;18.60;98.40;;;18.76;100.00;-21190.53;5051159;28;20976;-78
2021/06/16 00:11:07;;;;;;;0.80;0.70;;;18.50;99.10;;;18.74;100.00;-21189.97;5052882;28;20451;-77
2021/06/16 00:13:35;;;;;;;0.70;0.60;;;18.40;99.00;;;18.68;100.00;-21188.31;5052251;28;20437;-77
2021/06/16 00:16:04;;;;;;;0.80;0.70;;;18.40;99.90;;;18.62;100.00;-21186.69;5064689;28;20425;-78
2021/06/16 00:18:33;;;;;;;0.80;0.70;;;18.30;99.90;;;18.58;100.00;-21185.72;5075148;28;20505;-78
2021/06/16 00:21:01;;;;;;;0.77;0.60;;;18.30;99.90;;;18.54;100.00;-21184.50;5068152;28;20458;-76
2021/06/16 00:23:28;;;;;;;0.80;0.63;;;18.30;99.90;;;18.48;100.00;-21182.84;5064567;28;20482;-78
2021/06/16 00:25:55;;;;;;;0.70;0.60;;;18.20;99.90;;;18.41;100.00;-21180.94;5069271;28;20464;-77
2021/06/16 00:28:24;;;;;;;0.80;0.70;;;18.20;99.90;;;18.33;100.00;-21178.88;5054867;28;20452;-78
2021/06/16 00:30:52;;;;;;;0.70;0.60;;;18.10;99.90;;;18.26;100.00;-21176.97;5073582;28;20522;-78
2021/06/16 00:33:20;;;;;;;0.80;0.70;;;18.00;99.90;;;18.14;100.00;-21173.81;5062547;28;20875;-78
2021/06/16 00:35:49;;;;;;;0.80;0.70;;;17.90;99.90;;;18.06;100.00;-21171.63;5054824;28;20422;-78
2021/06/16 00:38:16;;;;;;;0.80;0.70;;;17.80;99.90;;;17.97;100.00;-21169.16;5055637;28;20481;-78
2021/06/16 00:40:44;;;;;;;0.77;0.60;;;17.80;99.90;;;17.91;100.00;-21167.50;5073638;28;20957;-79
2021/06/16 00:43:13;;;;;;;0.80;0.63;;;17.70;99.90;;;17.78;100.00;-21164.22;5088897;28;20450;-79
2021/06/16 00:45:41;;;;;;;0.80;0.70;;;17.60;99.90;;;17.71;100.00;-21162.28;5037927;28;20466;-78
2021/06/16 00:48:09;;;;;;;0.80;0.60;;;17.50;99.90;;;17.62;100.00;-21159.97;5055847;28;20446;-78
2021/06/16 00:50:39;;;;;;;0.80;0.70;;;17.40;99.90;;;17.56;100.00;-21158.19;5076386;28;20415;-78
2021/06/16 00:53:09;;;;;;;0.80;0.70;;;17.40;99.90;;;17.50;100.00;-21156.53;5073875;28;21032;-79
2021/06/16 00:55:38;;;;;;;0.80;0.80;;;17.30;99.90;;;17.44;100.00;-21154.91;5071185;28;20458;-79
2021/06/16 00:58:07;;;;;;;0.80;0.70;;;17.20;99.90;;;17.45;100.00;-21155.31;5071626;28;20978;-78
2021/06/16 01:00:42;;;;;;;0.80;0.70;;;17.20;99.90;;;17.45;100.00;-21155.31;5070686;28;20514;-79
2021/06/16 01:03:15;;;;;;;0.80;0.60;;;17.10;99.90;;;17.50;100.00;-21156.69;5041973;28;20453;-76
2021/06/16 01:05:49;;;;;;;0.80;0.67;;;17.20;99.90;;;17.61;100.00;-21159.56;5057593;28;20812;-77
2021/06/16 01:08:25;;;;;;;0.70;0.60;;;17.20;99.90;;;17.63;100.00;-21160.09;5074537;28;20453;-78
2021/06/16 01:10:57;;;;;;;0.80;0.70;;;17.20;99.90;;;17.74;100.00;-21163.13;5065486;28;20435;-79
2021/06/16 01:13:32;;;;;;;0.80;0.70;;;17.30;99.90;;;17.76;100.00;-21163.66;5072348;28;20440;-77
2021/06/16 01:16:07;;;;;;;0.80;0.70;;;17.30;99.90;;;17.77;100.00;-21163.94;5057895;28;20486;-78
2021/06/16 01:18:43;;;;;;;0.80;0.70;;;17.40;99.90;;;17.80;100.00;-21164.63;5074627;28;20484;-78
2021/06/16 01:21:12;;;;;;;0.70;0.60;;;17.40;99.90;;;17.79;100.00;-21164.50;5074117;28;20964;-79
2021/06/16 01:24:08;;;;;;;0.80;0.63;;;17.40;99.90;;;17.79;100.00;-21164.50;5055885;28;20498;-79
2021/06/16 01:26:42;;;;;;;0.80;0.60;;;17.40;99.90;;;17.79;100.00;-21164.50;5052976;28;20865;-79
2021/06/16 01:29:15;;;;;;;0.80;0.70;;;17.50;99.90;;;17.75;100.00;-21163.41;5046768;28;20441;-79
2021/06/16 01:31:50;;;;;;;0.70;0.60;;;17.40;99.90;;;17.71;100.00;-21162.28;5057495;28;20442;-78
2021/06/16 01:34:22;;;;;;;0.70;0.70;;;17.40;99.90;;;17.69;100.00;-21161.75;5070618;28;20931;-79
2021/06/16 01:36:53;;;;;;;0.80;0.70;;;17.40;99.90;;;17.59;100.00;-21159.13;5037683;28;20438;-79
2021/06/16 01:39:24;;;;;;;0.80;0.60;;;17.30;99.90;;;17.58;100.00;-21158.88;5055676;28;20966;-79
2021/06/16 01:41:57;;;;;;;0.80;0.70;;;17.30;99.90;;;17.54;100.00;-21157.63;5062953;28;20438;-77
2021/06/16 01:44:25;;;;;;;0.70;0.60;;;17.20;99.90;;;17.50;100.00;-21156.53;5086618;28;20527;-79
2021/06/16 01:46:57;;;;;;;0.70;0.60;;;17.20;99.90;;;17.46;100.00;-21155.59;5058259;28;20420;-78
2021/06/16 01:49:28;;;;;;;0.80;0.70;;;17.20;99.90;;;17.44;100.00;-21154.91;5074138;28;20429;-79
2021/06/16 01:51:58;;;;;;;0.70;0.70;;;17.10;99.90;;;17.41;100.00;-21154.06;5063057;28;20438;-78
2021/06/16 01:54:27;;;;;;;0.80;0.70;;;17.00;99.90;;;17.37;100.00;-21153.09;5055505;28;20871;-79
2021/06/16 01:56:59;;;;;;;0.70;0.60;;;17.00;99.90;;;17.32;100.00;-21151.88;5053952;28;20462;-79
2021/06/16 01:59:27;;;;;;;0.80;0.70;;;17.00;99.90;;;17.32;100.00;-21151.88;5067022;28;20846;-77
2021/06/16 02:01:55;;;;;;;0.80;0.60;;;16.90;99.90;;;17.22;100.00;-21149.13;5056913;28;20423;-79
2021/06/16 02:04:24;;;;;;;0.80;0.70;;;16.90;99.90;;;17.13;100.00;-21146.66;5073826;28;20407;-78
2021/06/16 02:07:05;;;;;;;0.70;0.60;;;16.80;99.90;;;17.08;100.00;-21145.28;5073805;28;20918;-78
2021/06/16 02:09:37;;;;;;;0.80;0.80;;;16.80;99.90;;;17.04;100.00;-21144.34;5056885;28;20456;-79
2021/06/16 02:12:11;;;;;;;0.80;0.70;;;16.70;99.90;;;16.98;100.00;-21142.56;5070309;28;20451;-78
2021/06/16 02:14:42;;;;;;;0.80;0.70;;;16.60;99.90;;;16.91;100.00;-21140.78;5055207;28;20934;-79
2021/06/16 02:17:13;;;;;;;0.70;0.60;;;16.60;99.90;;;16.83;100.00;-21138.56;5057807;28;20454;-79
2021/06/16 02:19:41;;;;;;;0.70;0.60;;;16.50;99.90;;;16.75;100.00;-21136.50;5069969;28;20468;-78
2021/06/16 02:22:09;;;;;;;0.80;0.60;;;16.40;99.90;;;16.69;100.00;-21134.72;5053229;28;20494;-79
2021/06/16 02:24:39;;;;;;;0.70;0.67;;;16.40;99.90;;;16.64;100.00;-21133.63;5052835;28;20444;-79
2021/06/16 02:27:08;;;;;;;0.70;0.60;;;16.30;99.90;;;16.58;100.00;-21131.97;5061653;28;20431;-79
2021/06/16 02:29:36;;;;;;;0.70;0.60;;;16.20;99.90;;;16.54;100.00;-21130.75;5053990;28;20447;-79
2021/06/16 02:32:06;;;;;;;0.70;0.60;;;16.20;99.90;;;16.52;100.00;-21130.19;5056669;28;20468;-78
2021/06/16 02:34:34;;;;;;;0.70;0.60;;;16.10;99.90;;;16.47;100.00;-21128.97;5056298;28;20430;-79
2021/06/16 02:37:06;;;;;;;0.80;0.70;;;16.10;99.90;;;16.44;100.00;-21128.13;5066259;28;20931;-79
2021/06/16 02:39:39;;;;;;;0.80;0.70;;;16.10;99.90;;;16.43;100.00;-21127.88;5056234;28;20478;-76
2021/06/16 02:42:10;;;;;;;0.70;0.70;;;16.00;99.90;;;16.42;100.00;-21127.72;5073458;28;20460;-78
2021/06/16 02:44:42;;;;;;;0.80;0.70;;;16.00;99.90;;;16.49;100.00;-21129.50;5072850;28;20499;-76
2021/06/16 02:47:11;;;;;;;0.70;0.60;;;16.00;99.90;;;16.52;100.00;-21130.34;5073742;28;20459;-78
2021/06/16 02:49:43;;;;;;;0.70;0.60;;;16.00;99.90;;;16.49;100.00;-21129.38;5057293;28;20456;-77
2021/06/16 02:52:15;;;;;;;0.80;0.70;;;16.10;99.90;;;16.47;100.00;-21128.81;5068088;28;20440;-77
2021/06/16 02:54:49;;;;;;;0.70;0.63;;;16.10;99.90;;;16.46;100.00;-21015.41;5070995;28;20466;-77
2021/06/16 02:57:22;;;;;;;0.80;0.70;;;16.00;99.90;;;16.53;100.00;-20845.41;5062507;28;20964;-77
2021/06/16 02:59:52;;;;;;;0.70;0.60;;;16.10;99.90;;;16.59;100.00;-20925.41;5053903;28;20419;-78
2021/06/16 03:02:23;;;;;;;0.70;0.60;;;16.10;99.90;;;16.68;100.00;-21026.47;5055504;28;20412;-78
2021/06/16 03:04:52;;;;;;;0.80;0.77;;;16.10;99.90;;;16.71;100.00;-21017.19;5055790;28;20431;-79
2021/06/16 03:07:21;;;;;;;0.70;0.60;;;16.10;99.90;;;16.69;100.00;-20879.94;5055119;28;21010;-79
2021/06/16 03:09:50;;;;;;;0.80;0.70;;;16.20;99.90;;;16.62;100.00;-20878.31;5053550;28;20508;-80
2021/06/16 03:12:21;;;;;;;0.70;0.60;;;16.20;99.90;;;16.58;100.00;-20945.38;5036341;28;20424;-79
2021/06/16 03:14:52;;;;;;;0.70;0.60;;;16.10;99.90;;;16.52;100.00;-20931.09;5053031;28;20952;-79
2021/06/16 03:17:22;;;;;;;0.80;0.70;;;16.10;99.90;;;16.50;100.00;-20971.13;5053071;28;20526;-79
2021/06/16 03:19:50;;;;;;;0.80;0.70;;;16.00;99.90;;;16.52;100.00;-20840.22;5054179;28;20838;-79
2021/06/16 03:22:19;;;;;;;0.80;0.70;;;16.10;99.90;;;16.58;100.00;-21003.53;5070943;28;20476;-78
2021/06/16 03:24:50;;;;;;;0.70;0.60;;;16.10;99.90;;;16.58;100.00;-21026.28;5057381;28;20467;-78
2021/06/16 03:27:24;;;;;;;0.77;0.60;;;16.10;99.90;;;16.55;100.00;-20790.44;5053708;28;20455;-77
2021/06/16 03:29:53;;;;;;;0.80;0.60;;;16.10;99.90;;;16.59;100.00;-20968.41;5053082;28;20413;-77
2021/06/16 03:32:23;;;;;;;0.70;0.63;;;16.10;99.90;;;16.62;100.00;-21132.94;5061295;28;20452;-79
2021/06/16 03:34:51;;;;;;;0.70;0.60;;;16.10;99.90;;;16.62;100.00;-21105.75;5054935;28;20912;-79
2021/06/16 03:37:19;;;;;;;0.80;0.70;;;16.10;99.90;;;16.60;100.00;-20910.50;5072744;28;20496;-79
2021/06/16 03:39:51;;;;;;;0.77;0.60;;;16.10;99.90;;;16.59;100.00;-20771.16;5079550;28;20474;-79
2021/06/16 03:42:21;;;;;;;0.70;0.60;;;16.10;99.90;;;16.63;100.00;-20762.13;5072279;28;20498;-78
2021/06/16 03:44:50;;;;;;;0.70;0.60;;;16.20;99.90;;;16.68;100.00;-20447.31;5058404;28;20449;-79
2021/06/16 03:47:21;;;;;;;0.70;0.60;;;16.20;99.90;;;16.72;100.00;-20225.63;5045508;28;20462;-79
2021/06/16 03:49:50;;;;;;;0.70;0.60;;;16.20;99.90;;;16.77;100.00;-20234.50;5056922;28;20467;-79
2021/06/16 03:52:21;;;;;;;0.80;0.70;;;16.30;99.90;;;16.82;100.00;-19843.75;5058014;28;20437;-79
2021/06/16 03:54:50;;;;;;;0.80;0.70;;;16.30;99.90;;;16.84;100.00;-18988.72;5057606;28;20416;-79
2021/06/16 03:57:21;;;;;;;0.70;0.70;;;16.40;99.90;;;16.82;100.00;-18742.84;5065635;28;20438;-78
2021/06/16 03:59:49;;;;;;;0.70;0.60;;;16.40;99.90;;;16.80;100.00;-18157.63;5074619;28;20430;-79
2021/06/16 04:02:18;;;;;;;0.80;0.70;;;16.40;99.90;;;16.83;100.00;-18003.84;5075493;28;20459;-79
2021/06/16 04:04:46;;;;;;;0.70;0.60;;;16.40;99.90;;;16.90;100.00;-18380.16;5072848;28;20479;-79
2021/06/16 04:07:16;;;;;;;0.80;0.60;;;16.40;99.90;;;16.92;100.00;-18261.50;5089326;28;21001;-79
2021/06/16 04:09:47;;;;;;;0.70;0.60;;;16.50;99.90;;;16.94;100.00;-18125.09;5055558;28;20463;-79
2021/06/16 04:12:14;;;;;;;0.70;0.60;;;16.50;99.90;;;16.97;100.00;-18270.22;5060876;28;20949;-79
2021/06/16 04:14:45;;;;;;;0.70;0.60;;;16.50;99.90;;;17.02;100.00;-18202.88;5075326;28;20452;-79
2021/06/16 04:17:16;;;;;;;0.70;0.67;;;16.50;99.90;;;17.06;100.00;-18039.28;5075805;28;20465;-79
2021/06/16 04:19:44;;;;;;;0.70;0.60;;;16.60;99.90;;;17.14;100.00;-17838.41;5058060;28;20447;-80
2021/06/16 04:22:12;;;;;;;0.70;0.60;;;16.60;99.90;;;17.25;100.00;-18099.16;5075959;28;20433;-79
2021/06/16 04:24:40;;;;;;;0.77;0.63;;;16.70;99.90;;;17.35;100.00;-18091.16;5075147;28;20480;-79
2021/06/16 04:27:08;;;;;;;0.80;0.63;;;16.80;99.90;;;17.45;100.00;-18143.97;5058118;28;20510;-80
2021/06/16 04:29:40;;;;;;;0.73;0.63;;;16.90;99.90;;;17.54;100.00;-18100.50;5075980;28;20440;-80
2021/06/16 04:32:10;;;;;;;0.80;0.70;;;17.00;99.90;;;17.65;100.00;-18437.47;5074019;28;20491;-80
2021/06/16 04:34:39;;;;;;;0.70;0.60;;;17.10;99.90;;;17.74;100.00;-18799.50;5092173;28;20915;-79
2021/06/16 04:37:08;;;;;;;0.80;0.70;;;17.20;99.90;;;17.80;100.00;-18737.44;5064803;28;20954;-80
2021/06/16 04:39:35;;;;;;;0.80;0.70;;;17.30;99.90;;;17.81;100.00;-18907.66;5067037;28;20515;-80
2021/06/16 04:42:04;;;;;;;0.80;0.70;;;17.30;99.90;;;17.86;100.00;-18454.97;5058010;28;20525;-79
2021/06/16 04:44:32;;;;;;;0.70;0.60;;;17.40;99.90;;;17.99;100.00;-18779.94;5074204;28;20887;-79
2021/06/16 04:46:59;;;;;;;0.80;0.70;;;17.50;99.90;;;18.14;100.00;-19407.28;5068865;28;20569;-79
2021/06/16 04:49:30;;;;;;;0.80;0.70;;;17.60;99.90;;;18.31;100.00;-19718.25;5074317;28;20431;-79
2021/06/16 04:51:59;;;;;;;0.70;0.60;;;17.70;99.90;;;18.48;100.00;-20856.31;5074532;28;20465;-79
2021/06/16 04:54:26;;;;;;;0.80;0.60;;;17.80;99.90;;;18.68;100.00;-21188.19;5074809;28;20555;-79
2021/06/16 04:56:54;;;;;;;0.80;0.70;;;18.00;99.90;;;18.79;100.00;-21191.22;5074319;28;20443;-79
2021/06/16 04:59:21;;;;;;;0.70;0.60;;;18.20;99.90;;;18.96;100.00;-21195.72;5052570;28;20835;-79
2021/06/16 05:01:49;;;;;;;1.17;1.07;;;18.30;99.90;;;18.97;100.00;-21196.00;5055878;28;20439;-79
2021/06/16 05:04:17;;;;;;;0.73;0.63;;;18.40;99.90;;;19.07;100.00;-21198.72;5055984;28;20451;-80
2021/06/16 05:06:46;;;;;;;0.80;0.70;;;18.50;99.90;;;19.24;100.00;-21203.38;5055042;28;20874;-79
2021/06/16 05:09:17;;;;;;;0.80;0.70;;;18.60;99.90;;;19.53;100.00;-21211.03;5055715;28;20772;-78
2021/06/16 05:11:44;;;;;;;0.70;0.60;;;18.80;99.90;;;19.50;100.00;-21210.34;5061497;28;20946;-79
2021/06/16 05:14:12;;;;;;;0.80;0.60;;;18.90;99.90;;;19.60;100.00;-21212.94;5058411;28;20438;-79
2021/06/16 05:16:40;;;;;;;0.70;0.70;;;19.00;99.90;;;19.64;100.00;-21214.06;5060124;28;21005;-78
2021/06/16 05:19:14;;;;;;;0.80;0.67;;;19.10;99.90;;;19.78;100.00;-21217.75;5077964;28;20415;-79
2021/06/16 05:21:43;;;;;;;0.80;0.73;;;19.20;99.90;;;19.87;100.00;-21220.06;5075420;28;20442;-78
2021/06/16 05:24:12;;;;;;;0.80;0.70;;;19.30;99.90;;;20.01;100.00;-21223.88;5078736;28;20467;-79
2021/06/16 05:26:40;;;;;;;0.80;0.70;;;19.40;99.90;;;19.96;100.00;-21222.53;5071148;28;20472;-79
2021/06/16 05:29:11;;;;;;;0.80;0.70;;;19.50;99.90;;;20.05;100.00;-21224.97;5078339;28;20453;-79
2021/06/16 05:31:39;;;;;;;0.70;0.60;;;19.60;99.90;;;20.10;100.00;-21226.34;5074154;28;20994;-78
2021/06/16 05:34:08;;;;;;;0.80;0.63;;;19.70;99.90;;;20.08;100.00;-21225.81;5076744;28;20820;-78
2021/06/16 05:36:39;;;;;;;0.80;0.70;;;19.80;99.90;;;20.12;100.00;-21226.75;5075373;28;20453;-79
2021/06/16 05:39:07;;;;;;;0.80;0.70;;;19.80;99.90;;;20.39;100.00;-21234.00;5078730;28;20993;-78
2021/06/16 05:41:36;;;;;;;0.80;0.60;;;19.90;99.90;;;20.41;100.00;-21234.53;5062190;28;20940;-78
2021/06/16 05:44:04;;;;;;;0.80;0.70;;;20.00;99.90;;;20.38;100.00;-21233.72;5077943;28;20818;-79
2021/06/16 05:46:32;;;;;;;0.80;0.70;;;20.00;99.90;;;20.44;100.00;-21235.50;5074645;28;20452;-78
2021/06/16 05:49:00;;;;;;;0.83;0.80;;;20.10;99.90;;;20.49;100.00;-21236.72;5058134;28;20448;-79
2021/06/16 05:51:28;;;;;;;0.80;0.77;;;20.10;99.90;;;20.67;100.00;-21241.50;5077495;28;20439;-79
2021/06/16 05:53:56;;;;;;;0.70;0.60;;;20.20;99.90;;;20.87;100.00;-21246.97;5074365;28;20505;-79
2021/06/16 05:56:23;;;;;;;0.80;0.70;;;20.40;99.90;;;21.03;100.00;-21251.19;5077925;28;20407;-79
2021/06/16 05:58:52;;;;;;;0.80;0.70;;;20.50;99.90;;;21.00;100.00;-21250.38;5077832;28;20458;-79
2021/06/16 06:01:20;;;;;;;0.80;0.70;;;20.70;99.90;;;21.09;100.00;-21252.69;5073213;28;20435;-79
2021/06/16 06:03:47;;;;;;;0.70;0.60;;;20.80;99.90;;;21.12;100.00;-21253.50;5074484;28;20404;-79
2021/06/16 06:06:15;;;;;;;0.80;0.70;;;20.80;99.90;;;21.07;100.00;-21252.16;5073287;28;20986;-80
2021/06/16 06:08:43;;;;;;;0.80;0.60;;;20.80;99.90;;;21.07;100.00;-21252.28;5044708;28;20472;-79
2021/06/16 06:11:11;;;;;;;0.80;0.80;;;20.70;99.90;;;21.07;100.00;-21252.28;5063368;28;20971;-79
2021/06/16 06:13:38;;;;;;;0.80;0.70;;;20.70;99.90;;;21.27;100.00;-21257.47;5075607;28;20431;-80
2021/06/16 06:16:07;;;;;;;0.80;0.70;;;20.80;99.90;;;21.44;100.00;-21262.13;5087229;28;20479;-80
2021/06/16 06:18:35;;;;;;;1.53;1.00;;;20.90;99.90;;;21.63;100.00;-21267.28;5053240;28;20436;-79
2021/06/16 06:21:03;;;;;;;0.80;0.70;;;21.10;99.90;;;21.73;100.00;-21269.88;5086685;28;20505;-79
2021/06/16 06:23:31;;;;;;;0.80;0.70;;;21.20;99.90;;;21.96;100.00;-21276.00;5056108;28;20840;-79
2021/06/16 06:26:01;;;;;;;0.80;0.70;;;21.40;99.90;;;21.94;100.00;-21275.59;5066171;28;20556;-79
2021/06/16 06:28:28;;;;;;;0.80;0.70;;;21.50;99.90;;;21.91;100.00;-21274.66;5059547;28;20955;-79
2021/06/16 06:30:56;;;;;;;0.80;0.70;;;21.50;99.90;;;22.02;100.00;-21277.66;5065452;28;20439;-78
2021/06/16 06:33:26;;;;;;;0.80;0.60;;;21.50;99.90;;;21.94;100.00;-21275.59;5074164;28;20435;-78
2021/06/16 06:35:53;;;;;;;0.80;0.70;;;21.50;99.90;;;22.02;100.00;-21277.66;5067182;28;20418;-79
2021/06/16 06:38:21;;;;;;;0.90;0.80;;;21.60;99.90;;;22.08;100.00;-21279.28;5054315;28;20460;-80
2021/06/16 06:40:50;;;;;;;0.80;0.70;;;21.70;99.90;;;22.09;100.00;-21279.41;5061621;28;20482;-80
2021/06/16 06:43:17;;;;;;;0.80;0.70;;;21.70;99.90;;;22.17;100.00;-21281.75;5073304;28;20438;-79
2021/06/16 06:45:49;;;;;;;0.80;0.70;;;21.70;99.90;;;22.33;100.00;-21285.97;5067675;28;20443;-79
2021/06/16 06:48:17;;;;;;;0.80;0.70;;;21.80;99.90;;;22.44;100.00;-21288.81;5055510;28;20913;-78
2021/06/16 06:50:46;;;;;;;0.80;0.63;;;22.00;99.90;;;22.52;100.00;-21291.00;5052704;28;20439;-79
2021/06/16 06:53:14;;;;;;;0.77;0.60;;;22.00;99.90;;;22.52;100.00;-21290.88;5054009;28;20928;-81
2021/06/16 06:55:42;;;;;;;1.00;0.90;;;22.10;99.90;;;22.81;100.00;-21298.75;5053548;28;20485;-78
2021/06/16 06:58:10;;;;;;;0.80;0.70;;;22.30;99.90;;;22.91;100.00;-21301.34;5071845;28;20534;-78
2021/06/16 07:00:37;;;;;;;0.70;0.60;;;22.40;99.90;;;23.13;100.00;-21307.34;5063397;28;20447;-79
2021/06/16 07:03:05;;;;;;;0.80;0.70;;;22.50;99.90;;;23.32;100.00;-21312.22;5074678;28;20482;-79
2021/06/16 07:05:33;;;;;;;0.80;0.67;;;22.70;99.90;;;23.37;100.00;-21313.59;5072745;28;20422;-78
2021/06/16 07:08:04;;;;;;;0.80;0.70;;;22.90;99.90;;;23.73;100.00;-21323.09;5054352;28;20492;-79
2021/06/16 07:10:32;;;;;;;0.80;0.70;;;23.00;99.90;;;23.62;100.00;-21320.38;5073541;28;20422;-78
2021/06/16 07:12:59;;;;;;;0.70;0.60;;;23.10;99.90;;;23.53;100.00;-21317.94;5057893;28;20454;-79
2021/06/16 07:15:27;;;;;;;0.80;0.80;;;23.10;99.90;;;23.57;100.00;-21318.88;5091095;28;20471;-78
2021/06/16 07:17:55;;;;;;;0.80;0.80;;;23.20;99.90;;;23.87;100.00;-21326.91;5065380;28;20845;-79
2021/06/16 07:20:22;;;;;;;0.80;0.70;;;23.30;99.90;;;23.98;100.00;-21329.91;5074846;28;20439;-78
2021/06/16 07:22:53;;;;;;;0.70;0.60;;;23.40;99.90;;;23.69;100.00;-21322.03;5087277;28;20451;-79
2021/06/16 07:25:22;;;;;;;0.80;0.63;;;23.40;99.90;;;24.04;100.00;-21331.53;5068564;28;20419;-78
2021/06/16 07:27:49;;;;;;;0.80;0.70;;;23.50;99.90;;;24.15;100.00;-21334.25;5065315;28;20442;-79
2021/06/16 07:30:20;;;;;;;0.80;0.70;;;23.60;99.90;;;24.33;100.00;-21339.13;5052680;28;20402;-79
2021/06/16 07:32:54;;;;;;;0.70;0.60;;;23.70;99.90;;;24.45;100.00;-21342.41;5071879;28;20546;-80
2021/06/16 07:35:22;;;;;;;0.80;0.70;;;23.90;99.90;;;24.49;100.00;-21343.47;5058650;28;20887;-79
2021/06/16 07:37:50;;;;;;;0.80;0.70;;;24.00;99.40;;;24.98;100.00;-21356.50;5072967;28;20451;-78
2021/06/16 07:40:18;;;;;;;0.80;0.67;;;24.20;97.80;;;24.92;100.00;-21354.88;5072841;28;20390;-78
2021/06/16 07:42:48;;;;;;;0.80;0.70;;;24.40;97.10;;;24.83;100.00;-21352.44;5056645;28;20422;-78
2021/06/16 07:45:15;;;;;;;0.77;0.60;;;24.40;95.60;;;24.79;100.00;-21351.34;5070657;28;20910;-77
2021/06/16 07:47:45;;;;;;;0.73;0.60;;;24.50;95.50;;;25.02;100.00;-21357.47;5034908;28;20426;-78
2021/06/16 07:50:14;;;;;;;0.70;0.60;;;24.50;94.90;;;25.24;100.00;-21363.28;5053266;28;20415;-77
2021/06/16 07:52:42;;;;;;;0.80;0.70;;;24.70;94.00;;;25.05;100.00;-21358.41;5069837;28;20911;-79
2021/06/16 07:55:10;;;;;;;0.80;0.70;;;24.70;94.70;;;25.27;100.00;-21364.25;5051991;28;20456;-77
2021/06/16 07:57:39;;;;;;;0.80;0.80;;;24.90;94.00;;;25.38;100.00;-21367.09;5037332;28;20934;-79
2021/06/16 08:00:10;;;;;;;0.70;0.60;;;25.10;94.90;;;25.60;100.00;-21372.91;5052186;28;20443;-79
2021/06/16 08:02:39;;;;;;;0.80;0.67;;;25.20;93.60;;;25.72;100.00;-21376.03;5059153;28;20896;-79
2021/06/16 08:05:12;;;;;;;0.80;0.70;;;25.30;93.00;;;25.97;100.00;-21382.81;5058181;28;20468;-79
2021/06/16 08:07:44;;;;;;;0.80;0.60;;;25.50;92.20;;;26.15;100.00;-21387.41;5052630;28;20502;-78
2021/06/16 08:10:12;;;;;;;0.80;0.60;;;25.60;91.40;;;26.16;100.00;-21387.69;5067044;28;20834;-77
2021/06/16 08:12:42;;;;;;;0.80;0.70;;;25.70;90.70;;;25.99;100.00;-21383.34;5052124;28;20471;-79
2021/06/16 08:15:13;;;;;;;0.70;0.60;;;25.70;90.60;;;26.06;100.00;-21385.09;5036220;28;20808;-79
2021/06/16 08:17:41;;;;;;;0.90;0.70;;;25.80;90.20;;;26.55;100.00;-21398.09;5054853;28;20904;-80
2021/06/16 08:20:10;;;;;;;1.37;1.27;;;26.00;90.70;;;26.86;100.00;-21406.22;5051834;28;20482;-79
2021/06/16 08:22:41;;;;;;;0.70;0.60;;;26.30;89.20;;;27.04;100.00;-21411.09;5054452;28;20500;-78
2021/06/16 08:25:11;;;;;;;0.80;0.70;;;26.50;85.60;;;27.09;100.00;-21412.44;5060414;28;20500;-75
2021/06/16 08:27:40;;;;;;;0.80;0.60;;;26.80;85.70;;;27.18;100.00;-21414.75;5071113;28;20546;-81
2021/06/16 08:30:12;;;;;;;0.80;0.67;;;26.80;82.70;;;27.20;100.00;-21415.28;5072288;28;20469;-78
2021/06/16 08:32:41;;;;;;;0.80;0.60;;;27.00;82.60;;;27.53;100.00;-21423.94;5073795;28;20429;-78
2021/06/16 08:35:12;;;;;;;0.70;0.60;;;27.20;81.00;;;28.04;100.00;-21437.56;5072453;28;20522;-79
2021/06/16 08:37:40;;;;;;;0.80;0.60;;;27.50;78.10;;;28.45;100.00;-21448.38;5079901;28;20836;-78
2021/06/16 08:40:09;;;;;;;0.70;0.50;;;28.00;75.30;;;29.12;100.00;-21466.03;5078466;28;20430;-78
2021/06/16 08:42:37;;;;;;;0.70;0.50;;;28.40;73.20;;;29.06;100.00;-21464.44;5074389;28;20446;-79
2021/06/16 08:45:07;;;;;;;0.70;0.60;;;28.60;69.90;;;29.12;100.00;-21466.19;5076472;28;20937;-80
2021/06/16 08:47:36;;;;;;;0.70;0.50;;;28.90;68.30;;;29.40;100.00;-21473.44;5075794;28;20466;-79
2021/06/16 08:50:07;;;;;;;0.70;0.50;;;28.90;69.40;;;30.06;100.00;-21490.81;5074193;28;20902;-78
2021/06/16 08:52:35;;;;;;;0.70;0.50;;;29.40;61.40;;;29.58;100.00;-21478.16;5074592;28;20439;-77
2021/06/16 08:55:05;;;;;;;0.70;0.50;;;29.40;58.20;;;29.80;100.00;-21484.09;5092136;28;20920;-78
2021/06/16 08:57:33;;;;;;;0.80;0.67;;;29.30;58.30;;;29.80;100.00;-21484.09;5075680;28;20797;-77
2021/06/16 09:00:01;;;;;;;0.70;0.50;;;29.60;57.10;;;29.77;100.00;-21483.28;5072834;28;20959;-79
2021/06/16 09:02:28;;;;;;;0.93;0.83;;;29.70;55.10;;;30.04;100.00;-21490.28;5073285;28;20419;-79
2021/06/16 09:04:57;;;;;;;0.70;0.50;;;30.10;52.20;;;30.04;100.00;-21490.28;5075433;28;20485;-79
2021/06/16 09:07:28;;;;;;;0.70;0.50;;;30.50;49.70;;;30.99;100.00;-21515.44;5074613;28;21006;-76
2021/06/16 09:10:15;;;;;;;0.70;0.50;;;31.00;48.60;;;31.98;100.00;-21541.34;5075155;28;20404;-79
2021/06/16 09:12:50;;;;;;;0.70;0.50;;;31.40;45.90;;;31.06;100.00;-21517.19;5074297;28;20769;-78
2021/06/16 09:15:21;;;;;;;0.70;0.50;;;31.20;45.50;;;31.43;100.00;-21526.97;5056705;28;20461;-78
2021/06/16 09:18:01;;;;;;;0.70;0.50;;;31.20;43.80;;;31.79;100.00;-21536.38;5049383;28;20436;-77
2021/06/16 09:20:34;;;;;;;0.80;0.50;;;32.30;39.80;;;32.56;100.00;-21556.50;5075363;28;20911;-78
2021/06/16 09:23:11;;;;;;;0.80;0.50;;;32.40;39.70;;;32.35;100.00;-21551.00;5067705;28;20496;-78
2021/06/16 09:25:40;;;;;;;0.80;0.50;;;32.50;36.50;;;33.21;100.00;-21573.50;5057039;28;20487;-78
2021/06/16 09:28:08;;;;;;;0.80;0.50;;;32.80;37.60;;;33.97;100.00;-21593.44;5053572;28;20455;-78
2021/06/16 09:30:41;;;;;;;0.80;0.50;;;33.20;35.30;;;33.79;100.00;-21588.91;5057995;28;20431;-79
2021/06/16 09:33:18;;;;;;;0.80;0.50;;;33.30;32.00;;;34.29;100.00;-21602.00;5066975;28;20866;-78
2021/06/16 09:35:49;;;;;;;0.80;0.50;;;33.90;28.10;;;33.73;100.00;-21587.16;5057568;28;20496;-76
2021/06/16 09:38:31;;;;;;;0.90;0.60;;;33.80;28.50;;;32.38;100.00;-21551.94;5073776;28;20958;-79
2021/06/16 09:41:01;;;;;;;0.80;0.50;;;33.30;27.60;;;33.76;100.00;-21588.09;5067591;28;20442;-79
2021/06/16 09:43:30;;;;;;;1.07;0.97;;;34.10;28.70;;;34.51;100.00;-21607.59;5054063;28;20435;-78
2021/06/16 09:46:01;;;;;;;0.80;0.50;;;34.60;26.90;;;34.36;100.00;-21603.72;5053525;28;20440;-79
2021/06/16 09:48:32;;;;;;;0.80;0.50;;;34.40;25.10;;;34.74;100.00;-21613.63;5063560;28;20466;-73
2021/06/16 09:51:34;;;;;;;0.90;0.77;;;34.90;25.30;;;35.00;100.00;-21620.44;5067036;28;20852;-78
2021/06/16 09:54:15;;;;;;;0.80;0.50;;;35.20;23.00;;;34.24;100.00;-21600.53;4991163;28;20599;-76
2021/06/16 09:56:51;;;;;;;0.90;0.80;;;34.80;22.90;;;34.73;100.00;-21613.47;5045316;28;20944;-76
2021/06/16 09:59:36;;;;;;;0.83;0.50;;;35.00;21.60;;;33.86;100.00;-21590.75;5062275;28;20481;-78
2021/06/16 10:02:04;;;;;;;1.10;0.60;;;35.20;23.60;;;34.85;100.00;-21616.56;5052468;28;20447;-75
2021/06/16 10:04:36;;;;;;;0.90;0.60;;;35.50;25.80;;;35.09;100.00;-21622.97;5053945;28;20471;-76
2021/06/16 10:07:18;;;;;;;0.90;0.50;;;36.00;20.30;;;35.69;100.00;-21638.44;5054486;28;20435;-77
2021/06/16 10:09:57;;;;;;;1.20;0.90;;;36.00;21.80;;;35.62;100.00;-21636.56;5053674;28;20530;-75
2021/06/16 10:12:29;;;;;;;0.90;0.50;;;36.10;17.50;;;35.11;100.00;-21623.22;5053030;28;20208;-78
2021/06/16 10:14:59;;;;;;;0.90;0.50;;;36.30;17.80;;;35.62;100.00;-21636.56;5053646;28;20519;-76
2021/06/16 10:17:29;;;;;;;0.90;0.60;;;36.30;17.50;;;35.82;100.00;-21641.91;5053583;28;20268;-76